createdAt,value
2022-12-08T00:01:06.710Z,8.03
2022-12-08T00:03:34.637Z,8.50
2022-12-08T00:06:22.433Z,7.77
2022-12-08T00:09:08.706Z,7.97
2022-12-08T00:11:36.587Z,7.70
2022-12-08T00:14:04.353Z,8.10
2022-12-08T00:16:31.867Z,8.20
2022-12-08T00:18:59.351Z,7.90
2022-12-08T00:21:26.829Z,9.07
2022-12-08T00:23:56.214Z,7.47
2022-12-08T00:26:24.194Z,8.30
2022-12-08T00:28:51.678Z,8.83
2022-12-08T00:31:19.296Z,9.03
2022-12-08T00:33:46.905Z,8.90
2022-12-08T00:36:15.267Z,9.03
2022-12-08T00:38:44.925Z,8.53
2022-12-08T00:41:16.950Z,9.40
2022-12-08T00:43:44.421Z,8.77
2022-12-08T00:46:12.381Z,8.67
2022-12-08T00:48:39.982Z,8.53
2022-12-08T00:51:07.578Z,7.77
2022-12-08T00:53:35.041Z,8.53
2022-12-08T00:56:02.535Z,8.80
2022-12-08T00:58:30.085Z,8.20
2022-12-08T01:00:58.896Z,8.70
2022-12-08T01:03:26.510Z,8.90
2022-12-08T01:05:54.019Z,8.50
2022-12-08T01:08:21.576Z,8.63
2022-12-08T01:10:49.067Z,8.87
2022-12-08T01:13:16.577Z,8.60
2022-12-08T01:15:44.057Z,8.90
2022-12-08T01:18:11.465Z,8.37
2022-12-08T01:20:38.959Z,8.50
2022-12-08T01:23:06.428Z,8.13
2022-12-08T01:25:35.656Z,8.63
2022-12-08T01:28:03.174Z,8.33
2022-12-08T01:30:31.225Z,8.47
2022-12-08T01:32:59.143Z,6.33
2022-12-08T01:35:26.613Z,7.77
2022-12-08T01:37:54.173Z,8.43
2022-12-08T01:40:21.652Z,7.60
2022-12-08T01:42:50.217Z,8.80
2022-12-08T01:45:25.983Z,7.37
2022-12-08T01:47:56.964Z,8.07
2022-12-08T01:50:24.641Z,7.67
2022-12-08T01:52:56.719Z,8.80
2022-12-08T01:55:26.948Z,8.83
2022-12-08T01:57:56.853Z,8.17
2022-12-08T02:00:24.748Z,8.57
2022-12-08T02:02:55.041Z,8.03
2022-12-08T02:05:24.090Z,9.47
2022-12-08T02:07:52.524Z,9.13
2022-12-08T02:10:21.133Z,8.93
2022-12-08T02:12:49.311Z,8.23
2022-12-08T02:15:16.910Z,8.97
2022-12-08T02:17:47.379Z,9.03
2022-12-08T02:20:24.128Z,8.77
2022-12-08T02:23:00.756Z,7.57
2022-12-08T02:25:42.833Z,8.80
2022-12-08T02:28:45.553Z,9.40
2022-12-08T02:31:16.071Z,8.83
2022-12-08T02:34:05.387Z,9.17
2022-12-08T02:36:53.094Z,8.97
2022-12-08T02:39:26.592Z,8.07
2022-12-08T02:42:08.234Z,9.83
2022-12-08T02:44:58.387Z,9.20
2022-12-08T02:47:26.363Z,8.90
2022-12-08T02:49:55.570Z,9.67
2022-12-08T02:52:23.008Z,8.07
2022-12-08T02:54:55.173Z,9.77
2022-12-08T02:57:33.826Z,9.97
2022-12-08T03:00:04.686Z,9.37
2022-12-08T03:02:51.080Z,9.67
2022-12-08T03:05:37.463Z,9.53
2022-12-08T03:08:20.065Z,8.50
2022-12-08T03:10:52.629Z,7.90
2022-12-08T03:13:28.620Z,8.63
2022-12-08T03:15:56.743Z,8.60
2022-12-08T03:18:28.515Z,5.40
2022-12-08T03:20:56.349Z,6.63
2022-12-08T03:23:25.348Z,8.10
2022-12-08T03:25:57.596Z,8.17
2022-12-08T03:28:25.234Z,6.53
2022-12-08T03:30:54.893Z,7.10
2022-12-08T03:33:33.667Z,7.47
2022-12-08T03:36:01.701Z,5.23
2022-12-08T03:38:37.766Z,7.33
2022-12-08T03:41:20.777Z,6.27
2022-12-08T03:43:55.079Z,7.40
2022-12-08T03:48:49.779Z,7.30
2022-12-08T03:51:17.840Z,7.27
2022-12-08T03:53:45.715Z,6.87
2022-12-08T03:56:32.842Z,6.90
2022-12-08T03:59:00.383Z,7.03
2022-12-08T04:01:27.927Z,7.60
2022-12-08T04:03:55.502Z,6.13
2022-12-08T04:06:23.090Z,7.40
2022-12-08T04:08:51.178Z,7.17
2022-12-08T04:11:19.090Z,6.60
2022-12-08T04:13:47.156Z,7.07
2022-12-08T04:16:22.559Z,7.30
2022-12-08T04:18:50.151Z,6.63
2022-12-08T04:21:17.979Z,6.33
2022-12-08T04:23:45.717Z,7.10
2022-12-08T04:36:16.290Z,6.13
2022-12-08T04:38:43.722Z,5.90
2022-12-08T04:41:11.097Z,5.97
2022-12-08T04:43:38.527Z,5.83
2022-12-08T04:46:09.507Z,5.67
2022-12-08T04:48:40.384Z,5.73
2022-12-08T04:51:08.329Z,4.90
2022-12-08T04:53:35.676Z,6.00
2022-12-08T04:56:03.062Z,6.10
2022-12-08T04:58:30.395Z,5.77
2022-12-08T05:00:57.785Z,6.13
2022-12-08T05:03:28.500Z,6.20
2022-12-08T05:05:56.299Z,6.67
2022-12-08T05:08:23.644Z,6.10
2022-12-08T05:10:51.042Z,5.90
2022-12-08T05:13:18.329Z,6.50
2022-12-08T05:15:45.605Z,7.57
2022-12-08T05:18:13.475Z,6.57
2022-12-08T05:20:40.825Z,8.40
2022-12-08T05:23:08.279Z,7.00
2022-12-08T05:25:35.657Z,5.60
2022-12-08T05:28:32.648Z,5.97
2022-12-08T05:30:50.370Z,6.70
2022-12-08T05:33:17.909Z,5.83
2022-12-08T05:35:45.335Z,6.80
2022-12-08T05:38:12.768Z,6.03
2022-12-08T05:40:40.781Z,5.93
2022-12-08T05:43:08.147Z,6.60
2022-12-08T05:45:35.531Z,6.73
2022-12-08T05:48:03.117Z,6.13
2022-12-08T05:50:30.566Z,6.17
2022-12-08T05:52:57.941Z,6.33
2022-12-08T05:55:25.336Z,5.93
2022-12-08T05:57:52.738Z,6.50
2022-12-08T06:00:20.872Z,6.50
2022-12-08T06:02:48.536Z,6.57
2022-12-08T06:05:15.980Z,6.50
2022-12-08T06:07:43.377Z,6.50
2022-12-08T06:10:10.931Z,5.50
2022-12-08T06:12:38.330Z,5.97
2022-12-08T06:15:05.804Z,6.67
2022-12-08T06:17:33.200Z,6.30
2022-12-08T06:20:00.601Z,6.40
2022-12-08T06:22:28.036Z,5.93
2022-12-08T06:24:55.416Z,6.27
2022-12-08T06:27:22.810Z,6.87
2022-12-08T06:29:50.195Z,6.10
2022-12-08T06:32:18.994Z,6.13
2022-12-08T06:34:48.170Z,5.87
2022-12-08T06:37:15.795Z,6.40
2022-12-08T06:39:43.110Z,6.43
2022-12-08T06:42:29.085Z,5.83
2022-12-08T06:45:03.206Z,5.47
2022-12-08T06:47:30.730Z,5.90
2022-12-08T06:49:58.066Z,6.37
2022-12-08T06:52:25.417Z,6.00
2022-12-08T06:54:52.750Z,6.03
2022-12-08T06:57:20.105Z,6.03
2022-12-08T06:59:47.512Z,5.90
2022-12-08T07:02:14.919Z,5.90
2022-12-08T07:04:42.321Z,6.53
2022-12-08T07:07:09.909Z,5.77
2022-12-08T07:09:37.324Z,5.60
2022-12-08T07:12:05.431Z,6.10
2022-12-08T07:14:32.759Z,5.50
2022-12-08T07:17:00.220Z,5.93
2022-12-08T07:19:27.689Z,5.80
2022-12-08T07:21:54.982Z,6.13
2022-12-08T07:24:22.403Z,5.93
2022-12-08T07:26:49.797Z,5.77
2022-12-08T07:29:20.503Z,6.07
2022-12-08T07:31:52.094Z,7.33
2022-12-08T07:34:19.477Z,7.40
2022-12-08T07:36:46.893Z,6.30
2022-12-08T07:39:14.221Z,6.97
2022-12-08T07:41:41.618Z,5.90
2022-12-08T07:44:09.822Z,7.57
2022-12-08T07:46:37.345Z,6.00
2022-12-08T07:49:04.730Z,6.37
2022-12-08T07:51:32.265Z,6.87
2022-12-08T07:53:59.607Z,6.97
2022-12-08T07:56:26.969Z,7.13
2022-12-08T07:58:54.395Z,6.63
2022-12-08T08:01:28.911Z,6.93
2022-12-08T08:03:57.186Z,7.27
2022-12-08T08:06:24.986Z,6.87
2022-12-08T08:08:52.383Z,6.47
2022-12-08T08:11:21.668Z,6.13
2022-12-08T08:13:50.008Z,6.73
2022-12-08T08:16:17.470Z,7.03
2022-12-08T08:18:47.293Z,7.87
2022-12-08T08:21:44.937Z,6.57
2022-12-08T08:24:01.984Z,7.67
2022-12-08T08:26:29.304Z,7.77
2022-12-08T08:28:57.451Z,7.40
2022-12-08T08:31:26.090Z,6.47
2022-12-08T08:33:54.100Z,7.47
2022-12-08T08:36:22.213Z,8.03
2022-12-08T08:38:49.633Z,8.17
2022-12-08T08:41:17.007Z,8.43
2022-12-08T08:43:45.947Z,7.83
2022-12-08T08:46:13.324Z,8.63
2022-12-08T08:48:41.007Z,7.77
2022-12-08T08:51:12.075Z,7.73
2022-12-08T08:53:39.452Z,7.50
2022-12-08T08:56:13.642Z,8.10
2022-12-08T08:58:41.166Z,7.43
2022-12-08T09:01:08.783Z,7.97
2022-12-08T09:03:36.156Z,8.40
2022-12-08T09:06:03.658Z,7.63
2022-12-08T09:08:31.387Z,8.57
2022-12-08T09:10:58.903Z,7.70
2022-12-08T09:13:26.276Z,7.60
2022-12-08T09:15:53.727Z,7.87
2022-12-08T09:18:21.150Z,7.83
2022-12-08T09:20:48.545Z,8.60
2022-12-08T09:23:15.869Z,8.33
2022-12-08T09:25:45.626Z,7.83
2022-12-08T09:28:13.800Z,7.90
2022-12-08T09:30:41.669Z,8.23
2022-12-08T09:33:09.060Z,7.53
2022-12-08T09:35:38.021Z,8.07
2022-12-08T09:38:05.446Z,8.43
2022-12-08T09:40:33.850Z,8.63
2022-12-08T09:43:16.959Z,8.33
2022-12-08T09:45:45.050Z,7.47
2022-12-08T09:48:12.401Z,8.17
2022-12-08T09:50:41.656Z,7.20
2022-12-08T09:53:22.078Z,8.63
2022-12-08T09:55:55.437Z,8.30
2022-12-08T09:58:28.420Z,7.20
2022-12-08T10:00:55.860Z,8.07
2022-12-08T10:03:25.119Z,5.13
2022-12-08T10:05:59.872Z,6.93
2022-12-08T10:08:31.889Z,7.77
2022-12-08T10:11:00.434Z,8.20
2022-12-08T10:13:35.302Z,7.33
2022-12-08T10:16:05.784Z,7.57
2022-12-08T10:18:34.545Z,6.70
2022-12-08T10:21:10.706Z,7.83
2022-12-08T10:23:39.461Z,6.53
2022-12-08T10:26:08.282Z,6.90
2022-12-08T10:28:41.450Z,7.67
2022-12-08T10:31:19.023Z,7.07
2022-12-08T10:33:47.686Z,7.07
2022-12-08T10:36:15.033Z,5.60
2022-12-08T10:38:42.414Z,6.93
2022-12-08T10:41:12.745Z,7.07
2022-12-08T10:43:44.474Z,7.73
2022-12-08T10:46:11.972Z,7.10
2022-12-08T10:48:47.722Z,6.83
2022-12-08T10:51:25.914Z,8.03
2022-12-08T10:53:53.307Z,6.70
2022-12-08T10:56:25.354Z,6.90
2022-12-08T10:59:05.247Z,6.97
2022-12-08T11:01:38.357Z,7.73
2022-12-08T11:04:07.918Z,7.43
2022-12-08T11:06:36.539Z,7.10
2022-12-08T11:09:19.079Z,8.37
2022-12-08T11:11:53.807Z,7.57
2022-12-08T11:14:47.592Z,7.90
2022-12-08T11:17:17.905Z,6.80
2022-12-08T11:19:46.684Z,7.23
2022-12-08T11:22:30.382Z,6.60
2022-12-08T11:24:59.946Z,7.53
2022-12-08T11:27:27.368Z,7.37
2022-12-08T11:29:54.891Z,7.43
2022-12-08T11:32:22.554Z,7.20
2022-12-08T11:35:01.404Z,7.07
2022-12-08T11:37:35.432Z,7.17
2022-12-08T11:40:05.730Z,6.83
2022-12-08T11:42:36.385Z,6.90
2022-12-08T11:45:07.155Z,7.07
2022-12-08T11:47:41.179Z,6.10
2022-12-08T11:50:21.132Z,6.40
2022-12-08T11:52:49.436Z,6.13
2022-12-08T11:55:20.025Z,5.63
2022-12-08T11:57:47.862Z,6.50
2022-12-08T12:00:17.153Z,5.77
2022-12-08T12:02:51.356Z,6.03
2022-12-08T12:05:39.896Z,6.03
2022-12-08T12:08:14.807Z,4.23
2022-12-08T12:10:48.208Z,4.80
2022-12-08T12:13:30.764Z,4.27
2022-12-08T12:16:16.982Z,5.40
2022-12-08T12:18:46.647Z,5.53
2022-12-08T12:21:20.040Z,5.13
2022-12-08T12:23:53.343Z,4.70
2022-12-08T12:26:24.532Z,5.00
2022-12-08T12:29:12.290Z,5.63
2022-12-08T12:31:41.656Z,4.93
2022-12-08T12:34:25.756Z,4.23
2022-12-08T12:37:04.340Z,4.67
2022-12-08T12:39:34.842Z,4.67
2022-12-08T12:42:03.232Z,4.93
2022-12-08T12:44:30.552Z,4.50
2022-12-08T12:46:59.161Z,4.23
2022-12-08T12:49:43.879Z,4.53
2022-12-08T12:52:11.216Z,4.03
2022-12-08T12:54:42.776Z,4.77
2022-12-08T12:57:10.115Z,4.77
2022-12-08T12:59:56.255Z,4.57
2022-12-08T13:02:23.718Z,4.23
2022-12-08T13:04:56.936Z,4.17
2022-12-08T13:07:26.494Z,4.77
2022-12-08T13:09:59.134Z,4.60
2022-12-08T13:12:28.211Z,4.77
2022-12-08T13:14:59.485Z,4.20
2022-12-08T13:17:30.244Z,4.43
2022-12-08T13:19:58.715Z,3.50
2022-12-08T13:23:01.889Z,4.03
2022-12-08T13:25:41.275Z,3.27
2022-12-08T13:28:19.748Z,3.67
2022-12-08T13:30:47.498Z,3.80
2022-12-08T13:33:19.746Z,3.37
2022-12-08T13:35:50.111Z,2.80
2022-12-08T13:38:20.141Z,3.30
2022-12-08T13:40:48.211Z,4.10
2022-12-08T13:43:50.951Z,3.70
2022-12-08T13:51:23.860Z,3.40
2022-12-08T13:53:49.693Z,2.90
2022-12-08T13:56:37.432Z,3.07
2022-12-08T13:57:56.152Z,2.77
2022-12-08T14:00:27.448Z,2.07
2022-12-08T14:02:58.884Z,2.73
2022-12-08T14:05:55.050Z,3.17
2022-12-08T14:08:50.442Z,3.03
2022-12-08T14:11:08.293Z,2.03
2022-12-08T14:13:35.678Z,2.90
2022-12-08T14:16:03.278Z,3.23
2022-12-08T14:18:31.812Z,3.47
2022-12-08T14:21:22.253Z,3.30
2022-12-08T14:23:49.676Z,2.97
2022-12-08T14:26:18.308Z,3.27
2022-12-08T14:28:45.989Z,3.10
2022-12-08T14:31:14.707Z,3.00
2022-12-08T14:33:43.095Z,2.93
2022-12-08T14:36:10.912Z,3.30
2022-12-08T14:38:38.709Z,2.80
2022-12-08T14:41:07.953Z,3.27
2022-12-08T14:43:35.813Z,3.07
2022-12-08T14:46:06.409Z,3.50
2022-12-08T14:48:34.038Z,3.30
2022-12-08T14:51:04.253Z,2.90
2022-12-08T14:53:51.905Z,2.93
2022-12-08T14:56:25.030Z,3.37
2022-12-08T14:59:03.565Z,3.97
2022-12-08T15:01:31.288Z,4.00
2022-12-08T15:04:14.936Z,3.93
2022-12-08T15:06:53.717Z,3.50
2022-12-08T15:09:36.902Z,3.63
2022-12-08T15:12:08.111Z,5.20
2022-12-08T15:14:37.286Z,3.53
2022-12-08T15:17:04.948Z,3.90
2022-12-08T15:19:34.146Z,3.60
2022-12-08T15:22:17.558Z,3.53
2022-12-08T15:24:44.878Z,3.37
2022-12-08T15:27:18.049Z,4.03
2022-12-08T15:29:46.922Z,3.70
2022-12-08T15:32:17.527Z,3.97
2022-12-08T15:34:44.897Z,3.80
2022-12-08T15:37:30.082Z,5.00
2022-12-08T15:39:57.433Z,4.80
2022-12-08T15:42:24.783Z,5.10
2022-12-08T15:44:52.124Z,3.83
2022-12-08T15:47:23.630Z,4.57
2022-12-08T15:49:52.628Z,3.83
2022-12-08T15:52:24.743Z,3.83
2022-12-08T15:54:52.374Z,3.93
2022-12-08T15:57:35.879Z,3.37
2022-12-08T16:00:50.683Z,3.40
2022-12-08T16:03:49.447Z,3.40
2022-12-08T16:09:06.114Z,3.37
2022-12-08T16:12:06.612Z,3.43
2022-12-08T16:17:23.481Z,3.33
2022-12-08T16:19:50.891Z,3.33
2022-12-08T16:25:18.141Z,3.37
2022-12-08T16:30:35.048Z,3.43
2022-12-08T16:33:02.647Z,3.37
2022-12-08T16:35:29.979Z,2.90
2022-12-08T16:37:57.444Z,3.20
2022-12-08T16:40:24.851Z,3.03
2022-12-08T16:42:52.221Z,2.97
2022-12-08T16:45:21.592Z,3.07
2022-12-08T16:47:50.507Z,3.00
2022-12-08T16:50:19.368Z,2.60
2022-12-08T16:52:47.220Z,3.10
2022-12-08T16:55:18.378Z,2.87
2022-12-08T16:57:47.202Z,2.90
2022-12-08T17:00:16.111Z,2.90
2022-12-08T17:02:44.866Z,2.93
2022-12-08T17:05:15.918Z,2.90
2022-12-08T17:07:44.189Z,2.80
2022-12-08T17:10:12.726Z,3.00
2022-12-08T17:12:40.172Z,3.00
2022-12-08T17:15:08.949Z,2.80
2022-12-08T17:17:36.464Z,3.00
2022-12-08T17:20:05.562Z,3.20
2022-12-08T17:22:33.613Z,2.83
2022-12-08T17:25:01.397Z,2.60
2022-12-08T17:27:29.199Z,3.00
2022-12-08T17:29:56.574Z,11.70
2022-12-08T17:32:24.247Z,9.17
2022-12-08T17:34:51.695Z,4.80
2022-12-08T17:37:19.355Z,5.10
2022-12-08T17:39:46.662Z,4.83
2022-12-08T17:42:14.781Z,3.93
2022-12-08T17:44:46.799Z,3.50
2022-12-08T17:47:14.429Z,3.63
2022-12-08T17:49:41.770Z,3.20
2022-12-08T17:52:09.315Z,3.23
2022-12-08T17:54:36.712Z,3.80
2022-12-08T17:57:04.577Z,3.13
2022-12-08T17:59:32.026Z,3.27
2022-12-08T18:02:00.282Z,3.43
2022-12-08T18:04:27.897Z,3.30
2022-12-08T18:06:55.370Z,3.30
2022-12-08T18:09:22.797Z,3.17
2022-12-08T18:11:50.190Z,3.20
2022-12-08T18:14:17.771Z,3.10
2022-12-08T18:16:46.754Z,3.00
2022-12-08T18:19:14.779Z,3.17
2022-12-08T18:21:42.533Z,3.57
2022-12-08T18:24:10.438Z,4.10
2022-12-08T18:26:37.888Z,4.30
2022-12-08T18:29:05.186Z,4.60
2022-12-08T18:31:32.691Z,3.83
2022-12-08T18:34:00.155Z,4.10
2022-12-08T18:36:27.493Z,4.23
2022-12-08T18:38:54.885Z,3.77
2022-12-08T18:41:24.606Z,4.00
2022-12-08T18:43:52.494Z,4.27
2022-12-08T18:46:19.972Z,4.07
2022-12-08T18:48:49.341Z,4.50
2022-12-08T18:51:20.994Z,5.13
2022-12-08T18:53:48.515Z,3.83
2022-12-08T18:56:26.377Z,4.30
2022-12-08T18:58:57.370Z,4.10
2022-12-08T19:01:29.045Z,4.33
2022-12-08T19:04:26.842Z,4.90
2022-12-08T19:06:45.242Z,5.27
2022-12-08T19:09:13.108Z,5.67
2022-12-08T19:11:40.846Z,5.37
2022-12-08T19:14:08.374Z,4.87
2022-12-08T19:16:36.549Z,4.90
2022-12-08T19:19:04.671Z,5.80
2022-12-08T19:21:32.594Z,5.53
2022-12-08T19:24:00.412Z,5.07
2022-12-08T19:26:28.709Z,6.00
2022-12-08T19:28:56.209Z,6.17
2022-12-08T19:31:23.627Z,5.80
2022-12-08T19:33:51.393Z,5.43
2022-12-08T19:36:19.688Z,5.73
2022-12-08T19:39:06.005Z,6.57
2022-12-08T19:41:52.342Z,6.20
2022-12-08T19:44:39.682Z,5.97
2022-12-08T19:47:07.265Z,5.37
2022-12-08T19:49:34.726Z,5.70
2022-12-08T19:52:02.085Z,6.40
2022-12-08T19:54:29.462Z,6.47
2022-12-08T19:56:56.840Z,5.77
2022-12-08T19:59:26.410Z,6.60
2022-12-08T20:01:56.035Z,6.43
2022-12-08T20:04:24.196Z,6.03
2022-12-08T20:06:52.523Z,6.43
2022-12-08T20:09:20.761Z,5.90
2022-12-08T20:11:48.364Z,6.23
2022-12-08T20:14:15.693Z,6.23
2022-12-08T20:16:43.156Z,6.90
2022-12-08T20:19:10.584Z,6.77
2022-12-08T20:21:37.903Z,6.63
2022-12-08T20:24:05.318Z,6.23
2022-12-08T20:26:32.784Z,6.13
2022-12-08T20:29:00.121Z,6.87
2022-12-08T20:31:28.832Z,6.53
2022-12-08T20:33:56.606Z,6.40
2022-12-08T20:36:24.208Z,6.80
2022-12-08T20:38:52.412Z,7.63
2022-12-08T20:41:20.223Z,6.40
2022-12-08T20:43:48.820Z,6.93
2022-12-08T20:46:17.161Z,6.90
2022-12-08T20:48:45.244Z,6.67
2022-12-08T20:51:16.824Z,7.07
2022-12-08T20:53:44.422Z,8.37
2022-12-08T20:56:18.911Z,7.93
2022-12-08T20:58:46.431Z,7.40
2022-12-08T21:01:15.439Z,6.60
2022-12-08T21:03:43.373Z,7.27
2022-12-08T21:06:10.976Z,7.90
2022-12-08T21:08:38.856Z,7.70
2022-12-08T21:11:06.860Z,8.07
2022-12-08T21:13:34.275Z,8.17
2022-12-08T21:16:01.899Z,8.50
2022-12-08T21:18:32.175Z,7.73
2022-12-08T21:21:04.889Z,8.40
2022-12-08T21:23:32.553Z,7.67
2022-12-08T21:26:00.025Z,8.00
2022-12-08T21:28:27.441Z,8.87
2022-12-08T21:30:54.951Z,8.40
2022-12-08T21:33:22.477Z,8.03
2022-12-08T21:35:50.209Z,8.80
2022-12-08T21:38:17.778Z,8.27
2022-12-08T21:40:45.229Z,9.10
2022-12-08T21:43:13.700Z,7.77
2022-12-08T21:45:41.255Z,9.23
2022-12-08T21:48:11.656Z,9.17
2022-12-08T21:50:39.707Z,8.77
2022-12-08T21:53:07.132Z,8.23
2022-12-08T21:55:34.546Z,8.30
2022-12-08T21:58:02.297Z,8.57
2022-12-08T22:00:30.366Z,9.10
2022-12-08T22:02:58.726Z,8.27
2022-12-08T22:05:27.651Z,8.77
2022-12-08T22:07:56.388Z,9.50
2022-12-08T22:10:24.099Z,8.47
2022-12-08T22:12:51.650Z,8.57
2022-12-08T22:15:19.837Z,8.47
2022-12-08T22:17:49.015Z,9.37
2022-12-08T22:20:17.628Z,9.03
2022-12-08T22:22:46.223Z,8.97
2022-12-08T22:25:15.066Z,8.47
2022-12-08T22:27:44.014Z,9.00
2022-12-08T22:30:12.201Z,8.37
2022-12-08T22:32:40.371Z,9.00
2022-12-08T22:35:08.081Z,8.97
2022-12-08T22:37:35.559Z,9.50
2022-12-08T22:40:05.259Z,8.67
2022-12-08T22:42:33.388Z,9.07
2022-12-08T22:45:00.726Z,9.67
2022-12-08T22:47:28.027Z,10.00
2022-12-08T22:49:55.391Z,9.03
2022-12-08T22:52:22.633Z,9.13
2022-12-08T22:54:50.224Z,9.33
2022-12-08T22:57:17.612Z,8.87
2022-12-08T22:59:45.157Z,9.13
2022-12-08T23:02:12.631Z,8.80
2022-12-08T23:04:40.453Z,7.73
2022-12-08T23:07:07.957Z,8.93
2022-12-08T23:09:35.432Z,8.20
2022-12-08T23:12:02.786Z,9.33
2022-12-08T23:14:30.095Z,8.83
2022-12-08T23:16:57.543Z,9.63
2022-12-08T23:19:25.090Z,8.70
2022-12-08T23:21:52.588Z,9.73
2022-12-08T23:24:19.862Z,9.33
2022-12-08T23:26:47.352Z,9.90
2022-12-08T23:29:14.845Z,9.17
2022-12-08T23:31:42.542Z,8.87
2022-12-08T23:34:10.321Z,9.37
2022-12-08T23:36:37.681Z,8.77
2022-12-08T23:39:05.679Z,9.13
2022-12-08T23:41:33.204Z,8.83
2022-12-08T23:44:00.713Z,9.00
2022-12-08T23:46:28.235Z,9.57
2022-12-08T23:48:55.671Z,9.60
2022-12-08T23:51:23.043Z,8.87
2022-12-08T23:53:50.461Z,9.53
2022-12-08T23:56:18.196Z,9.07
2022-12-08T23:58:46.472Z,9.47
